Boynton Beach, FL (33435)

6:35 AM EDT on August 31, 2015 (GMT -0400)
Forest Park | | Change Station
CLOSE
Current Station
Personal Weather Station
Location: Boynton Beach, FL
Elevation: 15 ft
Nearby Weather Stations

Elev 15 ft 26.52 °N, 80.07 °W | Updated 12 days ago

Partly Cloudy
Partly Cloudy
78 °F
Feels Like 78 °F
N
5
Wind Variable Wind from SE
Gusts mph

Today
High -- | Low -- °F
--% Chance of Precip.
Yesterday
High -- | Low -- °F
Precip. -- in
6:59 AM 7:41 PM
Waning Gibbous, 96% visible
Pressure 30.00 in
Visibility 10.0 miles
Clouds Few 2200 ft
Scattered Clouds 25000 ft
Dew Point 75 °F
Humidity 92%
Rainfall in
Snow Depth Not available.
UV 0 out of 12
Pollen .60 out of 12
Air Quality Not available.
Flu Activity Not available.
METAR KPBI 310953Z 15005KT 10SM FEW022 SCT250 26/23 A3000 RMK AO2 SLP158 T02610228
Pressure 30.00 in
Visibility 10.0 miles
Clouds Few 2200 ft
Scattered Clouds 25000 ft
Dew Point 75 °F
Humidity 92%
Rainfall in
Snow Depth Not available.
UV 0 out of 12
Pollen .60 out of 12
Air Quality Not available.
Flu Activity Not available.
METAR KPBI 310953Z 15005KT 10SM FEW022 SCT250 26/23 A3000 RMK AO2 SLP158 T02610228

10-Day Weather Forecast

×

Almanac

Astronomy

Aug. 31, 2015 Rise Set
Actual Time
Civil Twilight
Nautical Twilight
Astronomical Twilight
Moon
Length of Visible Light
Length of Day
Tomorrow will be .
, % of the Moon is Illuminated

Today's Extremes

State Highs State Lows

Community

WunderPhotos

Upload Photos

1,851,229 photos uploaded!

WunderBlogs® & News

Nearby

Air Quality

  Air Quality AQ Index Pollutant
Not available.

Snow Depth

Station Depth Elevation

Earthquake Activity

City Distance Mag. Time & Date
Minimum magnitude displayed is 2.5.

Coastal Water Temperatures

Place Temperature

Stations

Nearby Weather Stations

Station Location Temp. Windchill Dew Point Humidity Wind Precip. Elev Updated Type